Observation data for O'Donnell on 01/11/2018      Previous  Date  Next       Current Mesonet Observations  Soil Data  Daily Summary Page  Observations in Plain Language
KOES 110600Z 23018KT 09/00 A2966 RMK A01 T00880001  RH  055%=      5-min Rain = 0
KOES 110605Z 23017G22KT 09/00 A2966 RMK A01 T00860001  RH  056%=      5-min Rain = 0
KOES 110610Z 23017KT 09/00 A2966 RMK A01 T00850001  RH  056%=      5-min Rain = 0
KOES 110615Z 23017G23KT 08/00 A2966 RMK A01 T00840001  RH  057%=      5-min Rain = 0
KOES 110620Z 23018KT 08/00 A2966 RMK A01 T00840001  RH  057%=      5-min Rain = 0
KOES 110625Z 23018KT 08/00 A2966 RMK A01 T00830000  RH  056%=      5-min Rain = 0
KOES 110630Z 23018KT 08/M00 A2966 RMK A01 T00831001  RH  056%=      5-min Rain = 0
KOES 110635Z 23018G24KT 08/M00 A2966 RMK A01 T00821001  RH  056%=      5-min Rain = 0
KOES 110640Z 23018KT 08/M00 A2966 RMK A01 T00821001  RH  056%=      5-min Rain = 0
KOES 110645Z 23018KT 08/M00 A2966 RMK A01 T00811002  RH  056%=      5-min Rain = 0
KOES 110650Z 22018G23KT 08/M00 A2966 RMK A01 T00811002  RH  056%=      5-min Rain = 0
KOES 110655Z 23018KT 08/M00 A2966 RMK A01 T00811002  RH  056%=      5-min Rain = 0
KOES 110700Z 23019KT 08/M00 A2965 RMK A01 T00821002  RH  056%=      5-min Rain = 0
KOES 110705Z 23017KT 08/M00 A2966 RMK A01 T00811002  RH  056%=      5-min Rain = 0
KOES 110710Z 23017G22KT 08/M00 A2966 RMK A01 T00811003  RH  056%=      5-min Rain = 0
KOES 110715Z 23016G21KT 08/M00 A2966 RMK A01 T00801003  RH  056%=      5-min Rain = 0
KOES 110720Z 23015KT 08/M00 A2966 RMK A01 T00801003  RH  056%=      5-min Rain = 0
KOES 110725Z 23014KT 08/M00 A2966 RMK A01 T00771003  RH  057%=      5-min Rain = 0
KOES 110730Z 23015G21KT 08/M00 A2965 RMK A01 T00761003  RH  058%=      5-min Rain = 0
KOES 110735Z 23017KT 08/M00 A2966 RMK A01 T00761003  RH  058%=      5-min Rain = 0
KOES 110740Z 23017KT 08/M00 A2965 RMK A01 T00771003  RH  057%=      5-min Rain = 0
KOES 110745Z 24017KT 08/M00 A2965 RMK A01 T00781003  RH  057%=      5-min Rain = 0
KOES 110750Z 24016G22KT 08/M00 A2965 RMK A01 T00781004  RH  057%=      5-min Rain = 0
KOES 110755Z 24016KT 08/M00 A2966 RMK A01 T00781004  RH  057%=      5-min Rain = 0
KOES 110800Z 23017KT 08/M01 A2966 RMK A01 T00781005  RH  056%=      5-min Rain = 0
KOES 110805Z 23016KT 08/M01 A2966 RMK A01 T00771005  RH  057%=      5-min Rain = 0
KOES 110810Z 24015KT 08/M01 A2966 RMK A01 T00771005  RH  057%=      5-min Rain = 0
KOES 110815Z 24015KT 08/M01 A2966 RMK A01 T00761005  RH  057%=      5-min Rain = 0
KOES 110820Z 24016KT 08/M01 A2966 RMK A01 T00761005  RH  057%=      5-min Rain = 0
KOES 110825Z 23016KT 08/M01 A2966 RMK A01 T00751005  RH  057%=      5-min Rain = 0
KOES 110830Z 23015KT 07/M01 A2966 RMK A01 T00741006  RH  058%=      5-min Rain = 0
KOES 110835Z 24015KT 07/M01 A2966 RMK A01 T00731006  RH  058%=      5-min Rain = 0
KOES 110840Z 24015KT 07/M01 A2967 RMK A01 T00731006  RH  058%=      5-min Rain = 0
KOES 110845Z 24015KT 07/M01 A2967 RMK A01 T00721006  RH  058%=      5-min Rain = 0
KOES 110850Z 24016KT 07/M01 A2967 RMK A01 T00721006  RH  058%=      5-min Rain = 0
KOES 110855Z 24016KT 07/M01 A2967 RMK A01 T00721006  RH  058%=      5-min Rain = 0
KOES 110900Z 24015KT 07/M01 A2967 RMK A01 T00721006  RH  058%=      5-min Rain = 0
KOES 110905Z 24015KT 07/M01 A2967 RMK A01 T00711006  RH  059%=      5-min Rain = 0
KOES 110910Z 24015KT 07/M01 A2967 RMK A01 T00711006  RH  059%=      5-min Rain = 0
KOES 110915Z 24016KT 07/M01 A2967 RMK A01 T00711006  RH  059%=      5-min Rain = 0
KOES 110920Z 24015KT 07/M01 A2968 RMK A01 T00711006  RH  059%=      5-min Rain = 0
KOES 110925Z 24015KT 07/M01 A2968 RMK A01 T00711006  RH  059%=      5-min Rain = 0
KOES 110930Z 24014G19KT 07/M01 A2968 RMK A01 T00711005  RH  059%=      5-min Rain = 0
KOES 110935Z 24015KT 07/M01 A2968 RMK A01 T00741005  RH  058%=      5-min Rain = 0
KOES 110940Z 24015KT 08/M01 A2968 RMK A01 T00751005  RH  058%=      5-min Rain = 0
KOES 110945Z 24014KT 08/M01 A2969 RMK A01 T00761005  RH  057%=      5-min Rain = 0
KOES 110950Z 24013KT 08/M00 A2969 RMK A01 T00771004  RH  057%=      5-min Rain = 0
KOES 110955Z 24014KT 08/M00 A2969 RMK A01 T00781004  RH  057%=      5-min Rain = 0
KOES 111000Z 25013KT 08/M00 A2969 RMK A01 T00801004  RH  056%=      5-min Rain = 0
KOES 111005Z 25013KT 08/M00 A2969 RMK A01 T00811003  RH  056%=      5-min Rain = 0
KOES 111010Z 25013G18KT 08/M00 A297 RMK A01 T00821003  RH  055%=      5-min Rain = 0
KOES 111015Z 26014KT 09/M00 A297 RMK A01 T00851003  RH  054%=      5-min Rain = 0
KOES 111020Z 26014G19KT 09/M00 A297 RMK A01 T00881003  RH  053%=      5-min Rain = 0
KOES 111025Z 27014G21KT 09/M00 A297 RMK A01 T00901004  RH  052%=      5-min Rain = 0
KOES 111030Z 28016KT 09/M01 A297 RMK A01 T00901005  RH  052%=      5-min Rain = 0
KOES 111035Z 28016KT 09/M01 A297 RMK A01 T00891005  RH  052%=      5-min Rain = 0
KOES 111040Z 29013KT 09/M00 A2971 RMK A01 T00881004  RH  053%=      5-min Rain = 0
KOES 111045Z 29013KT 09/M00 A2971 RMK A01 T00881004  RH  053%=      5-min Rain = 0
KOES 111050Z 29013KT 09/M00 A2971 RMK A01 T00901003  RH  052%=      5-min Rain = 0
KOES 111055Z 29016KT 09/M00 A2971 RMK A01 T00941003  RH  051%=      5-min Rain = 0
KOES 111100Z 29016KT 10/M00 A2971 RMK A01 T00961003  RH  050%=      5-min Rain = 0
KOES 111105Z 29015KT 10/M00 A2972 RMK A01 T00971003  RH  050%=      5-min Rain = 0
KOES 111110Z 30015G23KT 10/M00 A2972 RMK A01 T00961003  RH  051%=      5-min Rain = 0
KOES 111115Z 31021G33KT 10/00 A2973 RMK A01 T00970001  RH  052%=      5-min Rain = 0
KOES 111120Z 33025G34KT 10/01 A2974 RMK A01 T00950011  RH  056%=      5-min Rain = 0
KOES 111125Z 33023G31KT 09/02 A2974 RMK A01 T00920017  RH  060%=      5-min Rain = 0
KOES 111130Z 34018KT 09/02 A2974 RMK A01 T00890020  RH  063%=      5-min Rain = 0
KOES 111135Z 34016G21KT 09/02 A2975 RMK A01 T00890017  RH  061%=      5-min Rain = 0
KOES 111140Z 34018G26KT 09/01 A2975 RMK A01 T00900013  RH  059%=      5-min Rain = 0
KOES 111145Z 34021G29KT 09/01 A2975 RMK A01 T00910009  RH  057%=      5-min Rain = 0
KOES 111150Z 35029G36KT 09/00 A2976 RMK A01 T00900004  RH  055%=      5-min Rain = 0
KOES 111155Z 36027G37KT 09/00 A2976 RMK A01 T00870001  RH  055%=      5-min Rain = 0
KOES 111200Z 36022G29KT 08/00 A2977 RMK A01 T00840002  RH  057%=      5-min Rain = 0
KOES 111205Z 35020G25KT 08/00 A2977 RMK A01 T00830002  RH  057%=      5-min Rain = 0
KOES 111210Z 35019G25KT 08/00 A2977 RMK A01 T00830002  RH  058%=      5-min Rain = 0
KOES 111215Z 34020G25KT 08/00 A2978 RMK A01 T00830003  RH  058%=      5-min Rain = 0
KOES 111220Z 34019G25KT 08/00 A2978 RMK A01 T00830003  RH  058%=      5-min Rain = 0
KOES 111225Z 34024G35KT 08/00 A2979 RMK A01 T00810002  RH  058%=      5-min Rain = 0
KOES 111230Z 34026G35KT 08/M00 A298 RMK A01 T00781002  RH  058%=      5-min Rain = 0
KOES 111235Z 35029G34KT 08/M01 A2981 RMK A01 T00751005  RH  057%=      5-min Rain = 0
KOES 111240Z 35026G33KT 07/M01 A2981 RMK A01 T00731005  RH  058%=      5-min Rain = 0
KOES 111245Z 36024G30KT 07/M01 A2982 RMK A01 T00721005  RH  059%=      5-min Rain = 0
KOES 111250Z 35025G33KT 07/M01 A2982 RMK A01 T00701006  RH  059%=      5-min Rain = 0
KOES 111255Z 34026G31KT 07/M01 A2983 RMK A01 T00651009  RH  060%=      5-min Rain = 0
KOES 111300Z 34024G31KT 06/M01 A2983 RMK A01 T00631009  RH  060%=      5-min Rain = 0
KOES 111305Z 35024G30KT 06/M01 A2984 RMK A01 T00611011  RH  061%=      5-min Rain = 0
KOES 111310Z 34022G29KT 06/M01 A2985 RMK A01 T00581012  RH  061%=      5-min Rain = 0
KOES 111315Z 34021G28KT 06/M01 A2985 RMK A01 T00561012  RH  062%=      5-min Rain = 0
KOES 111320Z 34024G32KT 06/M01 A2985 RMK A01 T00551013  RH  062%=      5-min Rain = 0
KOES 111325Z 35027G34KT 05/M01 A2986 RMK A01 T00541013  RH  062%=      5-min Rain = 0
KOES 111330Z 35025G32KT 05/M01 A2986 RMK A01 T00531014  RH  063%=      5-min Rain = 0
KOES 111335Z 35024G32KT 05/M01 A2987 RMK A01 T00521014  RH  063%=      5-min Rain = 0
KOES 111340Z 35024G30KT 05/M01 A2987 RMK A01 T00511014  RH  063%=      5-min Rain = 0
KOES 111345Z 34021G31KT 05/M01 A2987 RMK A01 T00511014  RH  063%=      5-min Rain = 0
KOES 111350Z 34022G30KT 05/M02 A2988 RMK A01 T00491017  RH  063%=      5-min Rain = 0
KOES 111355Z 34022G29KT 05/M02 A2988 RMK A01 T00461019  RH  063%=      5-min Rain = 0
KOES 111400Z 34023G29KT 05/M02 A2989 RMK A01 T00451020  RH  063%=      5-min Rain = 0
KOES 111405Z 34022G29KT 04/M02 A299 RMK A01 T00441020  RH  063%=      5-min Rain = 0
KOES 111410Z 35025G32KT 04/M03 A299 RMK A01 T00431026  RH  061%=      5-min Rain = 0
KOES 111415Z 35024G31KT 04/M03 A2991 RMK A01 T00401028  RH  062%=      5-min Rain = 0
KOES 111420Z 35023KT 04/M03 A2991 RMK A01 T00391028  RH  062%=      5-min Rain = 0
KOES 111425Z 35021G27KT 04/M03 A2992 RMK A01 T00391029  RH  062%=      5-min Rain = 0
KOES 111430Z 35021G26KT 04/M03 A2992 RMK A01 T00371031  RH  061%=      5-min Rain = 0
KOES 111435Z 35021G27KT 04/M03 A2993 RMK A01 T00361031  RH  062%=      5-min Rain = 0
KOES 111440Z 35021KT 04/M03 A2993 RMK A01 T00351031  RH  062%=      5-min Rain = 0
KOES 111445Z 35019KT 04/M03 A2994 RMK A01 T00351030  RH  063%=      5-min Rain = 0
KOES 111450Z 35018KT 04/M03 A2995 RMK A01 T00351030  RH  063%=      5-min Rain = 0
KOES 111455Z 35020G29KT 04/M03 A2996 RMK A01 T00361031  RH  062%=      5-min Rain = 0
KOES 111500Z 35022G29KT 04/M04 A2996 RMK A01 T00371037  RH  059%=      5-min Rain = 0
KOES 111505Z 36025G32KT 04/M05 A2996 RMK A01 T00351051  RH  054%=      5-min Rain = 0
KOES 111510Z 35023G30KT 03/M05 A2997 RMK A01 T00331054  RH  053%=      5-min Rain = 0
KOES 111515Z 35021G29KT 03/M05 A2997 RMK A01 T00331053  RH  053%=      5-min Rain = 0
KOES 111520Z 35023G30KT 03/M05 A2998 RMK A01 T00341054  RH  053%=      5-min Rain = 0
KOES 111525Z 35021G30KT 03/M05 A2999 RMK A01 T00341054  RH  052%=      5-min Rain = 0
KOES 111530Z 33020G27KT 03/M05 A2999 RMK A01 T00321048  RH  056%=      5-min Rain = 0
KOES 111535Z 34024G30KT 03/M05 A30 RMK A01 T00281054  RH  055%=      5-min Rain = 0
KOES 111540Z 33023G29KT 03/M06 A3001 RMK A01 T00261061  RH  053%=      5-min Rain = 0
KOES 111545Z 34025G34KT 03/M07 A3001 RMK A01 T00261067  RH  050%=      5-min Rain = 0
KOES 111550Z 35028G34KT 03/M07 A3002 RMK A01 T00261072  RH  048%=      5-min Rain = 0
KOES 111555Z 35026G32KT 03/M07 A3003 RMK A01 T00261073  RH  048%=      5-min Rain = 0
KOES 111600Z 34027G33KT 03/M08 A3004 RMK A01 T00251075  RH  047%=      5-min Rain = 0
KOES 111605Z 34026G31KT 03/M08 A3004 RMK A01 T00251077  RH  047%=      5-min Rain = 0
KOES 111610Z 35026G31KT 03/M08 A3005 RMK A01 T00261077  RH  047%=      5-min Rain = 0
KOES 111615Z 35024G30KT 03/M08 A3005 RMK A01 T00291076  RH  046%=      5-min Rain = 0
KOES 111620Z 35026G32KT 03/M08 A3006 RMK A01 T00311076  RH  046%=      5-min Rain = 0
KOES 111625Z 35024G30KT 03/M08 A3006 RMK A01 T00331076  RH  045%=      5-min Rain = 0
KOES 111630Z 35024G31KT 03/M08 A3007 RMK A01 T00331078  RH  044%=      5-min Rain = 0
KOES 111635Z 35024G31KT 03/M08 A3007 RMK A01 T00321079  RH  044%=      5-min Rain = 0
KOES 111640Z 35025G32KT 03/M08 A3008 RMK A01 T00321080  RH  044%=      5-min Rain = 0
KOES 111645Z 35022KT 03/M08 A3008 RMK A01 T00331079  RH  043%=      5-min Rain = 0
KOES 111650Z 35024KT 04/M08 A3008 RMK A01 T00351079  RH  043%=      5-min Rain = 0
KOES 111655Z 35024G30KT 04/M08 A3009 RMK A01 T00381079  RH  042%=      5-min Rain = 0
KOES 111700Z 35025KT 04/M08 A3009 RMK A01 T00401082  RH  041%=      5-min Rain = 0
KOES 111705Z 35025G32KT 04/M08 A3009 RMK A01 T00401084  RH  040%=      5-min Rain = 0
KOES 111710Z 35024G29KT 04/M09 A301 RMK A01 T00401085  RH  040%=      5-min Rain = 0
KOES 111715Z 34022G28KT 04/M09 A3011 RMK A01 T00411086  RH  039%=      5-min Rain = 0
KOES 111720Z 35024G31KT 04/M09 A3011 RMK A01 T00421088  RH  038%=      5-min Rain = 0
KOES 111725Z 35027G33KT 04/M09 A3012 RMK A01 T00431089  RH  038%=      5-min Rain = 0
KOES 111730Z 35026G33KT 05/M09 A3012 RMK A01 T00471089  RH  036%=      5-min Rain = 0
KOES 111735Z 35025G30KT 05/M09 A3012 RMK A01 T00491090  RH  036%=      5-min Rain = 0
KOES 111740Z 35023G29KT 05/M09 A3012 RMK A01 T00531090  RH  035%=      5-min Rain = 0
KOES 111745Z 35023G29KT 05/M09 A3013 RMK A01 T00531090  RH  035%=      5-min Rain = 0
KOES 111750Z 35021G28KT 05/M09 A3013 RMK A01 T00541089  RH  035%=      5-min Rain = 0
KOES 111755Z 34021KT 05/M09 A3013 RMK A01 T00541089  RH  035%=      5-min Rain = 0
KOES 111800Z 34020G28KT 06/M09 A3013 RMK A01 T00551089  RH  035%=      5-min Rain = 0
KOES 111805Z 34020KT 06/M09 A3012 RMK A01 T00571089  RH  034%=      5-min Rain = 0
KOES 111810Z 34020G27KT 06/M09 A3013 RMK A01 T00601088  RH  034%=      5-min Rain = 0
KOES 111815Z 35026G32KT 06/M10 A3013 RMK A01 T00641095  RH  031%=      5-min Rain = 0
KOES 111820Z 35024G32KT 07/M10 A3013 RMK A01 T00651097  RH  030%=      5-min Rain = 0
KOES 111825Z 36023G30KT 07/M10 A3013 RMK A01 T00701098  RH  029%=      5-min Rain = 0
KOES 111830Z 36026G31KT 07/M10 A3013 RMK A01 T00721101  RH  028%=      5-min Rain = 0
KOES 111835Z 35025G32KT 07/M10 A3013 RMK A01 T00741103  RH  027%=      5-min Rain = 0
KOES 111840Z 36022G29KT 08/M10 A3012 RMK A01 T00751102  RH  027%=      5-min Rain = 0
KOES 111845Z 35019G26KT 08/M10 A3012 RMK A01 T00781097  RH  028%=      5-min Rain = 0
KOES 111850Z 35022KT 08/M10 A3013 RMK A01 T00761098  RH  028%=      5-min Rain = 0
KOES 111855Z 36024G29KT 08/M10 A3013 RMK A01 T00761104  RH  027%=      5-min Rain = 0
KOES 111900Z 36024KT 08/M11 A3013 RMK A01 T00801107  RH  025%=      5-min Rain = 0
KOES 111905Z 35023G30KT 08/M11 A3013 RMK A01 T00791106  RH  026%=      5-min Rain = 0
KOES 111910Z 36025G30KT 08/M11 A3014 RMK A01 T00791112  RH  024%=      5-min Rain = 0
KOES 111915Z 36027G33KT 08/M12 A3014 RMK A01 T00781115  RH  024%=      5-min Rain = 0
KOES 111920Z 36026G33KT 08/M12 A3014 RMK A01 T00801115  RH  024%=      5-min Rain = 0
KOES 111925Z 35024KT 08/M11 A3014 RMK A01 T00821114  RH  024%=      5-min Rain = 0
KOES 111930Z 35022G29KT 08/M11 A3014 RMK A01 T00841114  RH  023%=      5-min Rain = 0
KOES 111935Z 36024G30KT 09/M12 A3014 RMK A01 T00871115  RH  023%=      5-min Rain = 0
KOES 111940Z 35023G30KT 09/M12 A3014 RMK A01 T00851116  RH  023%=      5-min Rain = 0
KOES 111945Z 36024G30KT 09/M12 A3014 RMK A01 T00871117  RH  022%=      5-min Rain = 0
KOES 111950Z 35022G27KT 09/M12 A3014 RMK A01 T00881119  RH  022%=      5-min Rain = 0
KOES 111955Z 36022G27KT 09/M12 A3014 RMK A01 T00891120  RH  021%=      5-min Rain = 0
KOES 112000Z 35021G26KT 09/M11 A3013 RMK A01 T00901113  RH  022%=      5-min Rain = 0
KOES 112005Z 35022G29KT 09/M11 A3014 RMK A01 T00911114  RH  022%=      5-min Rain = 0
KOES 112010Z 35022G29KT 09/M12 A3014 RMK A01 T00911118  RH  021%=      5-min Rain = 0
KOES 112015Z 00023G31KT 09/M12 A3014 RMK A01 T00931119  RH  021%=      5-min Rain = 0
KOES 112020Z 36024G31KT 09/M12 A3014 RMK A01 T00931124  RH  020%=      5-min Rain = 0
KOES 112025Z 00023G28KT 09/M12 A3014 RMK A01 T00931124  RH  020%=      5-min Rain = 0
KOES 112030Z 36019G26KT 10/M12 A3014 RMK A01 T00971121  RH  020%=      5-min Rain = 0
KOES 112035Z 35021G28KT 10/M12 A3015 RMK A01 T00961120  RH  020%=      5-min Rain = 0
KOES 112040Z 35023G30KT 10/M12 A3015 RMK A01 T00961122  RH  020%=      5-min Rain = 0
KOES 112045Z 36022G28KT 10/M12 A3015 RMK A01 T00951121  RH  020%=      5-min Rain = 0
KOES 112050Z 35023G31KT 10/M12 A3015 RMK A01 T00951122  RH  020%=      5-min Rain = 0
KOES 112055Z 35021G28KT 10/M12 A3015 RMK A01 T00971122  RH  020%=      5-min Rain = 0
KOES 112100Z 00019G24KT 10/M12 A3016 RMK A01 T00981119  RH  020%=      5-min Rain = 0
KOES 112105Z 36020G27KT 10/M12 A3016 RMK A01 T00981119  RH  020%=      5-min Rain = 0
KOES 112110Z 36019G25KT 10/M12 A3016 RMK A01 T00961119  RH  021%=      5-min Rain = 0
KOES 112115Z 36019G26KT 10/M12 A3017 RMK A01 T00971118  RH  020%=      5-min Rain = 0
KOES 112120Z 36020G25KT 10/M12 A3017 RMK A01 T00971121  RH  020%=      5-min Rain = 0
KOES 112125Z 36020G25KT 10/M12 A3018 RMK A01 T00981120  RH  020%=      5-min Rain = 0
KOES 112130Z 35018G23KT 10/M12 A3018 RMK A01 T00981120  RH  020%=      5-min Rain = 0
KOES 112135Z 35018KT 10/M12 A3018 RMK A01 T00991120  RH  020%=      5-min Rain = 0
KOES 112140Z 35020G26KT 10/M12 A3018 RMK A01 T00991121  RH  020%=      5-min Rain = 0
KOES 112145Z 35018G24KT 10/M12 A3018 RMK A01 T00981122  RH  020%=      5-min Rain = 0
KOES 112150Z 35019KT 10/M12 A3018 RMK A01 T00961121  RH  020%=      5-min Rain = 0
KOES 112155Z 34020G25KT 10/M12 A3019 RMK A01 T00961123  RH  020%=      5-min Rain = 0
KOES 112200Z 34019G24KT 10/M12 A3019 RMK A01 T00951122  RH  020%=      5-min Rain = 0
KOES 112205Z 35019G24KT 10/M12 A3019 RMK A01 T00951121  RH  020%=      5-min Rain = 0
KOES 112210Z 35018G23KT 10/M12 A3019 RMK A01 T00971121  RH  020%=      5-min Rain = 0
KOES 112215Z 36017KT 10/M12 A3019 RMK A01 T00961119  RH  020%=      5-min Rain = 0
KOES 112220Z 36017G22KT 10/M12 A3019 RMK A01 T00971119  RH  020%=      5-min Rain = 0
KOES 112225Z 35015KT 10/M12 A3019 RMK A01 T00981118  RH  020%=      5-min Rain = 0
KOES 112230Z 35016KT 10/M12 A3019 RMK A01 T00971118  RH  021%=      5-min Rain = 0
KOES 112235Z 36014KT 10/M12 A3019 RMK A01 T00961119  RH  021%=      5-min Rain = 0
KOES 112240Z 35014G19KT 10/M12 A302 RMK A01 T00971119  RH  020%=      5-min Rain = 0
KOES 112245Z 00015KT 10/M12 A302 RMK A01 T00971120  RH  020%=      5-min Rain = 0
KOES 112250Z 00013G18KT 10/M12 A302 RMK A01 T00951120  RH  021%=      5-min Rain = 0
KOES 112255Z 36013KT 10/M12 A302 RMK A01 T00951120  RH  020%=      5-min Rain = 0
KOES 112300Z 35015KT 09/M12 A3021 RMK A01 T00931122  RH  020%=      5-min Rain = 0
KOES 112305Z 35014G19KT 09/M12 A3021 RMK A01 T00921123  RH  020%=      5-min Rain = 0
KOES 112310Z 35016KT 09/M12 A3021 RMK A01 T00901124  RH  020%=      5-min Rain = 0
KOES 112315Z 35014KT 09/M13 A3021 RMK A01 T00901125  RH  020%=      5-min Rain = 0
KOES 112320Z 35014KT 09/M13 A3022 RMK A01 T00891128  RH  020%=      5-min Rain = 0
KOES 112325Z 36013KT 09/M13 A3022 RMK A01 T00871126  RH  020%=      5-min Rain = 0
KOES 112330Z 00014KT 09/M13 A3022 RMK A01 T00851126  RH  021%=      5-min Rain = 0
KOES 112335Z 00012KT 08/M13 A3022 RMK A01 T00831126  RH  021%=      5-min Rain = 0
KOES 112340Z 00010KT 08/M12 A3023 RMK A01 T00811124  RH  022%=      5-min Rain = 0
KOES 112345Z 00010KT 08/M12 A3023 RMK A01 T00791124  RH  022%=      5-min Rain = 0
KOES 112350Z 35010KT 08/M12 A3023 RMK A01 T00771124  RH  022%=      5-min Rain = 0
KOES 112355Z 35009KT 07/M12 A3024 RMK A01 T00741124  RH  023%=      5-min Rain = 0
KOES 120000Z 35008KT 07/M13 A3024 RMK A01 T00691125  RH  023%=      5-min Rain = 0
KOES 120005Z 36008KT 07/M13 A3024 RMK A01 T00651126  RH  024%=      5-min Rain = 0
KOES 120010Z 35007KT 06/M13 A3024 RMK A01 T00601127  RH  025%=      5-min Rain = 0
KOES 120015Z 35007KT 06/M13 A3024 RMK A01 T00551128  RH  025%=      5-min Rain = 0
KOES 120020Z 34006KT 05/M13 A3024 RMK A01 T00521128  RH  026%=      5-min Rain = 0
KOES 120025Z 35007KT 05/M13 A3024 RMK A01 T00521128  RH  026%=      5-min Rain = 0
KOES 120030Z 35007KT 05/M13 A3024 RMK A01 T00481129  RH  026%=      5-min Rain = 0
KOES 120035Z 35008KT 05/M13 A3024 RMK A01 T00461128  RH  027%=      5-min Rain = 0
KOES 120040Z 35008KT 04/M13 A3024 RMK A01 T00431130  RH  027%=      5-min Rain = 0
KOES 120045Z 35007KT 04/M13 A3024 RMK A01 T00401130  RH  028%=      5-min Rain = 0
KOES 120050Z 36008KT 04/M13 A3024 RMK A01 T00361132  RH  028%=      5-min Rain = 0
KOES 120055Z 36008KT 03/M13 A3024 RMK A01 T00331131  RH  029%=      5-min Rain = 0
KOES 120100Z 36009KT 03/M13 A3024 RMK A01 T00311130  RH  029%=      5-min Rain = 0
KOES 120105Z 36009KT 03/M13 A3025 RMK A01 T00301130  RH  030%=      5-min Rain = 0
KOES 120110Z 36009KT 03/M13 A3025 RMK A01 T00291131  RH  030%=      5-min Rain = 0
KOES 120115Z 00009KT 03/M13 A3025 RMK A01 T00271131  RH  030%=      5-min Rain = 0
KOES 120120Z 00009KT 03/M13 A3025 RMK A01 T00261131  RH  030%=      5-min Rain = 0
KOES 120125Z 00008KT 02/M13 A3025 RMK A01 T00231131  RH  031%=      5-min Rain = 0
KOES 120130Z 00008KT 02/M13 A3025 RMK A01 T00211132  RH  031%=      5-min Rain = 0
KOES 120135Z 00007KT 02/M13 A3025 RMK A01 T00181133  RH  031%=      5-min Rain = 0
KOES 120140Z 00007KT 02/M13 A3026 RMK A01 T00151134  RH  032%=      5-min Rain = 0
KOES 120145Z 00007KT 01/M13 A3026 RMK A01 T00131134  RH  032%=      5-min Rain = 0
KOES 120150Z 00007KT 01/M13 A3026 RMK A01 T00111133  RH  033%=      5-min Rain = 0
KOES 120155Z 00007KT 01/M14 A3026 RMK A01 T00111135  RH  033%=      5-min Rain = 0
KOES 120200Z 00007KT 01/M13 A3026 RMK A01 T00091134  RH  033%=      5-min Rain = 0
KOES 120205Z 00007KT 01/M13 A3026 RMK A01 T00101132  RH  033%=      5-min Rain = 0
KOES 120210Z 36007KT 01/M13 A3026 RMK A01 T00111132  RH  034%=      5-min Rain = 0
KOES 120215Z 00006KT 01/M13 A3026 RMK A01 T00111134  RH  033%=      5-min Rain = 0
KOES 120220Z 01007KT 01/M14 A3027 RMK A01 T00051137  RH  033%=      5-min Rain = 0
KOES 120225Z 01008KT M00/M14 A3027 RMK A01 T10011139  RH  034%=      5-min Rain = 0
KOES 120230Z 01009KT M01/M14 A3026 RMK A01 T10071140  RH  035%=      5-min Rain = 0
KOES 120235Z 01009KT M01/M14 A3026 RMK A01 T10081137  RH  037%=      5-min Rain = 0
KOES 120240Z 02008KT M01/M14 A3026 RMK A01 T10091135  RH  037%=      5-min Rain = 0
KOES 120245Z 02008KT M01/M13 A3026 RMK A01 T10121131  RH  040%=      5-min Rain = 0
KOES 120250Z 03007KT M02/M13 A3026 RMK A01 T10151131  RH  041%=      5-min Rain = 0
KOES 120255Z 03006KT M02/M13 A3026 RMK A01 T10161133  RH  040%=      5-min Rain = 0
KOES 120300Z 03007KT M02/M13 A3026 RMK A01 T10151133  RH  040%=      5-min Rain = 0
KOES 120305Z 03008KT M02/M14 A3026 RMK A01 T10151136  RH  039%=      5-min Rain = 0
KOES 120310Z 03006KT M02/M13 A3026 RMK A01 T10161134  RH  040%=      5-min Rain = 0
KOES 120315Z 03005KT M02/M13 A3027 RMK A01 T10151128  RH  042%=      5-min Rain = 0
KOES 120320Z 03005KT M01/M13 A3027 RMK A01 T10121129  RH  041%=      5-min Rain = 0
KOES 120325Z 03004KT M01/M13 A3027 RMK A01 T10141132  RH  040%=      5-min Rain = 0
KOES 120330Z 02004KT M02/M13 A3027 RMK A01 T10161131  RH  041%=      5-min Rain = 0
KOES 120335Z 02005KT M02/M13 A3027 RMK A01 T10161133  RH  040%=      5-min Rain = 0
KOES 120340Z 01005KT M02/M13 A3027 RMK A01 T10171131  RH  041%=      5-min Rain = 0
KOES 120345Z 01005KT M01/M13 A3027 RMK A01 T10131129  RH  041%=      5-min Rain = 0
KOES 120350Z 01006KT M01/M13 A3027 RMK A01 T10091127  RH  040%=      5-min Rain = 0
KOES 120355Z 02005KT M01/M13 A3027 RMK A01 T10081127  RH  040%=      5-min Rain = 0
KOES 120400Z 03004KT M01/M13 A3027 RMK A01 T10121131  RH  040%=      5-min Rain = 0
KOES 120405Z 03005KT M01/M12 A3028 RMK A01 T10091123  RH  041%=      5-min Rain = 0
KOES 120410Z 02005KT M01/M13 A3028 RMK A01 T10071125  RH  040%=      5-min Rain = 0
KOES 120415Z 02006KT M01/M13 A3028 RMK A01 T10111127  RH  041%=      5-min Rain = 0
KOES 120420Z 02005KT M01/M12 A3028 RMK A01 T10091121  RH  042%=      5-min Rain = 0
KOES 120425Z 03005KT M01/M13 A3028 RMK A01 T10081126  RH  040%=      5-min Rain = 0
KOES 120430Z 04006KT M02/M14 A3028 RMK A01 T10191136  RH  040%=      5-min Rain = 0
KOES 120435Z 04006KT M03/M14 A3028 RMK A01 T10301141  RH  042%=      5-min Rain = 0
KOES 120440Z 03006KT M03/M14 A3028 RMK A01 T10341137  RH  044%=      5-min Rain = 0
KOES 120445Z 03006KT M03/M14 A3028 RMK A01 T10341137  RH  045%=      5-min Rain = 0
KOES 120450Z 04004KT M03/M14 A3028 RMK A01 T10331136  RH  044%=      5-min Rain = 0
KOES 120455Z 05003KT M03/M13 A3028 RMK A01 T10321134  RH  045%=      5-min Rain = 0
KOES 120500Z 04003KT M03/M13 A3029 RMK A01 T10291128  RH  046%=      5-min Rain = 0
KOES 120505Z 03002KT M03/M12 A3029 RMK A01 T10251124  RH  046%=      5-min Rain = 0
KOES 120510Z 03003KT M02/M12 A3029 RMK A01 T10221121  RH  046%=      5-min Rain = 0
KOES 120515Z 04002KT M02/M12 A3029 RMK A01 T10201123  RH  045%=      5-min Rain = 0
KOES 120520Z 04002KT M02/M12 A3029 RMK A01 T10191122  RH  045%=      5-min Rain = 0
KOES 120525Z 04003KT M02/M12 A3029 RMK A01 T10181122  RH  045%=      5-min Rain = 0
KOES 120530Z 03003KT M02/M12 A3028 RMK A01 T10171121  RH  044%=      5-min Rain = 0
KOES 120535Z 03004KT M02/M12 A3028 RMK A01 T10161122  RH  044%=      5-min Rain = 0
KOES 120540Z 02003KT M01/M12 A3028 RMK A01 T10141120  RH  044%=      5-min Rain = 0
KOES 120545Z 03003KT M01/M12 A3028 RMK A01 T10121119  RH  043%=      5-min Rain = 0
KOES 120550Z 02003KT M01/M12 A3028 RMK A01 T10111120  RH  043%=      5-min Rain = 0
KOES 120555Z 02004KT M01/M12 A3028 RMK A01 T10101120  RH  043%=      5-min Rain = 0

Page generated in 0.009 seconds.